Terminal Aerodrome Forecast
Issued by NWS

Home | Current Version | Previous Version | Text Only | Print | Product List | Glossary On
Versions: 1 2 3 4 5 6 7 8 9 10 11 12 13
014
FTUS45 KTFX 281120
TAFHVR
TAF
KHVR 281120Z 2812/2912 25008KT P6SM VCSH SCT035 BKN070
     FM281400 28012KT P6SM FEW070
     FM290100 23008KT P6SM FEW070
     FM290900 22012KT P6SM FEW060 SCT100=

USA.gov is the U.S. government's official web portal to all federal, state and local government web resources and services.